sensor_id;sensor_type;location;lat;lon;timestamp;P1;durP1;ratioP1;P2;durP2;ratioP2
29916;SDS011;16786;49.466;11.068;2023-12-29T00:02:15;11.27;;;5.82;;
29916;SDS011;16786;49.466;11.068;2023-12-29T00:04:42;11.27;;;5.20;;
29916;SDS011;16786;49.466;11.068;2023-12-29T00:07:09;10.07;;;5.10;;
29916;SDS011;16786;49.466;11.068;2023-12-29T00:09:36;13.90;;;4.90;;
29916;SDS011;16786;49.466;11.068;2023-12-29T00:12:07;10.25;;;5.00;;
29916;SDS011;16786;49.466;11.068;2023-12-29T00:14:38;9.20;;;5.57;;
29916;SDS011;16786;49.466;11.068;2023-12-29T00:17:06;9.82;;;4.63;;
29916;SDS011;16786;49.466;11.068;2023-12-29T00:19:33;9.15;;;4.22;;
29916;SDS011;16786;49.466;11.068;2023-12-29T00:22:00;9.77;;;4.93;;
29916;SDS011;16786;49.466;11.068;2023-12-29T00:24:30;9.52;;;4.50;;
29916;SDS011;16786;49.466;11.068;2023-12-29T00:26:58;7.22;;;3.83;;
29916;SDS011;16786;49.466;11.068;2023-12-29T00:29:25;7.50;;;4.28;;
29916;SDS011;16786;49.466;11.068;2023-12-29T00:31:54;8.88;;;4.32;;
29916;SDS011;16786;49.466;11.068;2023-12-29T00:34:21;6.82;;;4.47;;
29916;SDS011;16786;49.466;11.068;2023-12-29T00:36:49;8.10;;;4.28;;
29916;SDS011;16786;49.466;11.068;2023-12-29T00:39:15;6.78;;;3.80;;
29916;SDS011;16786;49.466;11.068;2023-12-29T00:41:42;7.43;;;3.83;;
29916;SDS011;16786;49.466;11.068;2023-12-29T00:44:10;8.05;;;3.70;;
29916;SDS011;16786;49.466;11.068;2023-12-29T00:46:37;6.05;;;3.30;;
29916;SDS011;16786;49.466;11.068;2023-12-29T00:49:04;7.70;;;4.07;;
29916;SDS011;16786;49.466;11.068;2023-12-29T00:51:32;6.28;;;3.65;;
29916;SDS011;16786;49.466;11.068;2023-12-29T00:53:59;6.90;;;3.80;;
29916;SDS011;16786;49.466;11.068;2023-12-29T00:56:26;9.27;;;4.75;;
29916;SDS011;16786;49.466;11.068;2023-12-29T00:58:53;7.85;;;3.58;;
29916;SDS011;16786;49.466;11.068;2023-12-29T01:01:19;7.45;;;4.45;;
29916;SDS011;16786;49.466;11.068;2023-12-29T01:03:47;6.30;;;4.18;;
29916;SDS011;16786;49.466;11.068;2023-12-29T01:06:14;6.63;;;3.50;;
29916;SDS011;16786;49.466;11.068;2023-12-29T01:08:41;7.03;;;3.65;;
29916;SDS011;16786;49.466;11.068;2023-12-29T01:11:08;6.97;;;3.38;;
29916;SDS011;16786;49.466;11.068;2023-12-29T01:13:36;7.53;;;4.15;;
29916;SDS011;16786;49.466;11.068;2023-12-29T01:16:03;7.13;;;3.53;;
29916;SDS011;16786;49.466;11.068;2023-12-29T01:18:31;5.47;;;3.40;;
29916;SDS011;16786;49.466;11.068;2023-12-29T01:20:59;8.85;;;4.13;;
29916;SDS011;16786;49.466;11.068;2023-12-29T01:23:27;4.95;;;2.92;;
29916;SDS011;16786;49.466;11.068;2023-12-29T01:25:54;9.55;;;3.55;;
29916;SDS011;16786;49.466;11.068;2023-12-29T01:28:21;4.90;;;3.10;;
29916;SDS011;16786;49.466;11.068;2023-12-29T01:30:48;5.45;;;2.90;;
29916;SDS011;16786;49.466;11.068;2023-12-29T01:33:15;4.97;;;2.88;;
29916;SDS011;16786;49.466;11.068;2023-12-29T01:35:42;5.95;;;3.08;;
29916;SDS011;16786;49.466;11.068;2023-12-29T01:38:09;8.55;;;2.92;;
29916;SDS011;16786;49.466;11.068;2023-12-29T01:40:45;5.13;;;3.10;;
29916;SDS011;16786;49.466;11.068;2023-12-29T01:43:12;6.93;;;3.05;;
29916;SDS011;16786;49.466;11.068;2023-12-29T01:45:40;7.90;;;2.83;;
29916;SDS011;16786;49.466;11.068;2023-12-29T01:48:22;7.03;;;3.20;;
29916;SDS011;16786;49.466;11.068;2023-12-29T01:50:51;5.20;;;2.78;;
29916;SDS011;16786;49.466;11.068;2023-12-29T01:53:21;4.28;;;2.75;;
29916;SDS011;16786;49.466;11.068;2023-12-29T01:56:04;5.20;;;2.92;;
29916;SDS011;16786;49.466;11.068;2023-12-29T01:58:32;4.97;;;2.78;;
29916;SDS011;16786;49.466;11.068;2023-12-29T02:01:00;5.32;;;2.90;;
29916;SDS011;16786;49.466;11.068;2023-12-29T02:03:27;6.45;;;2.67;;
29916;SDS011;16786;49.466;11.068;2023-12-29T02:05:55;4.93;;;2.67;;
29916;SDS011;16786;49.466;11.068;2023-12-29T02:08:24;4.28;;;2.30;;
29916;SDS011;16786;49.466;11.068;2023-12-29T02:10:51;4.28;;;2.55;;
29916;SDS011;16786;49.466;11.068;2023-12-29T02:13:19;5.28;;;2.80;;
29916;SDS011;16786;49.466;11.068;2023-12-29T02:15:50;3.85;;;2.30;;
29916;SDS011;16786;49.466;11.068;2023-12-29T02:18:18;5.05;;;2.63;;
29916;SDS011;16786;49.466;11.068;2023-12-29T02:20:48;4.28;;;2.55;;
29916;SDS011;16786;49.466;11.068;2023-12-29T02:23:15;5.78;;;2.88;;
29916;SDS011;16786;49.466;11.068;2023-12-29T02:25:41;5.93;;;3.00;;
29916;SDS011;16786;49.466;11.068;2023-12-29T02:28:19;5.82;;;3.30;;
29916;SDS011;16786;49.466;11.068;2023-12-29T02:31:07;4.72;;;3.10;;
29916;SDS011;16786;49.466;11.068;2023-12-29T02:33:40;4.70;;;2.88;;
29916;SDS011;16786;49.466;11.068;2023-12-29T02:36:09;6.10;;;3.50;;
29916;SDS011;16786;49.466;11.068;2023-12-29T02:38:38;5.95;;;3.45;;
29916;SDS011;16786;49.466;11.068;2023-12-29T02:41:06;8.57;;;3.60;;
29916;SDS011;16786;49.466;11.068;2023-12-29T02:43:33;5.25;;;3.30;;
29916;SDS011;16786;49.466;11.068;2023-12-29T02:46:00;6.57;;;3.67;;
29916;SDS011;16786;49.466;11.068;2023-12-29T02:48:27;7.03;;;3.35;;
29916;SDS011;16786;49.466;11.068;2023-12-29T02:50:54;7.30;;;3.42;;
29916;SDS011;16786;49.466;11.068;2023-12-29T02:53:21;7.10;;;3.67;;
29916;SDS011;16786;49.466;11.068;2023-12-29T02:55:48;5.75;;;3.63;;
29916;SDS011;16786;49.466;11.068;2023-12-29T02:58:15;7.75;;;4.05;;
29916;SDS011;16786;49.466;11.068;2023-12-29T03:00:42;6.00;;;3.97;;
29916;SDS011;16786;49.466;11.068;2023-12-29T03:03:10;6.57;;;4.40;;
29916;SDS011;16786;49.466;11.068;2023-12-29T03:05:37;7.88;;;4.55;;
29916;SDS011;16786;49.466;11.068;2023-12-29T03:08:04;7.38;;;4.40;;
29916;SDS011;16786;49.466;11.068;2023-12-29T03:10:31;9.90;;;4.90;;
29916;SDS011;16786;49.466;11.068;2023-12-29T03:12:58;8.85;;;4.82;;
29916;SDS011;16786;49.466;11.068;2023-12-29T03:15:25;6.93;;;4.28;;
29916;SDS011;16786;49.466;11.068;2023-12-29T03:17:52;8.07;;;4.53;;
29916;SDS011;16786;49.466;11.068;2023-12-29T03:20:20;7.50;;;5.00;;
29916;SDS011;16786;49.466;11.068;2023-12-29T03:22:47;8.95;;;5.30;;
29916;SDS011;16786;49.466;11.068;2023-12-29T03:25:14;7.43;;;4.60;;
29916;SDS011;16786;49.466;11.068;2023-12-29T03:27:41;6.13;;;4.20;;
29916;SDS011;16786;49.466;11.068;2023-12-29T03:30:08;9.98;;;4.63;;
29916;SDS011;16786;49.466;11.068;2023-12-29T03:32:36;8.70;;;5.38;;
29916;SDS011;16786;49.466;11.068;2023-12-29T03:35:04;8.70;;;5.07;;
29916;SDS011;16786;49.466;11.068;2023-12-29T03:37:32;7.40;;;4.55;;
29916;SDS011;16786;49.466;11.068;2023-12-29T03:39:59;6.90;;;4.43;;
29916;SDS011;16786;49.466;11.068;2023-12-29T03:42:26;8.35;;;4.75;;
29916;SDS011;16786;49.466;11.068;2023-12-29T03:44:53;8.43;;;4.70;;
29916;SDS011;16786;49.466;11.068;2023-12-29T03:47:21;7.88;;;4.70;;
29916;SDS011;16786;49.466;11.068;2023-12-29T03:49:48;8.57;;;5.22;;
29916;SDS011;16786;49.466;11.068;2023-12-29T03:52:15;9.10;;;5.20;;
29916;SDS011;16786;49.466;11.068;2023-12-29T03:54:42;10.05;;;5.35;;
29916;SDS011;16786;49.466;11.068;2023-12-29T03:57:09;8.38;;;5.13;;
29916;SDS011;16786;49.466;11.068;2023-12-29T03:59:39;7.68;;;5.13;;
29916;SDS011;16786;49.466;11.068;2023-12-29T04:02:06;9.82;;;5.63;;
29916;SDS011;16786;49.466;11.068;2023-12-29T04:04:36;10.55;;;5.90;;
29916;SDS011;16786;49.466;11.068;2023-12-29T04:07:05;9.80;;;5.43;;
29916;SDS011;16786;49.466;11.068;2023-12-29T04:09:32;8.30;;;5.90;;
29916;SDS011;16786;49.466;11.068;2023-12-29T04:11:59;8.57;;;5.40;;
29916;SDS011;16786;49.466;11.068;2023-12-29T04:14:26;9.68;;;5.50;;
29916;SDS011;16786;49.466;11.068;2023-12-29T04:16:53;9.95;;;6.45;;
29916;SDS011;16786;49.466;11.068;2023-12-29T04:19:20;9.75;;;5.55;;
29916;SDS011;16786;49.466;11.068;2023-12-29T04:21:47;8.80;;;5.30;;
29916;SDS011;16786;49.466;11.068;2023-12-29T04:24:14;9.18;;;5.82;;
29916;SDS011;16786;49.466;11.068;2023-12-29T04:26:41;7.72;;;5.28;;
29916;SDS011;16786;49.466;11.068;2023-12-29T04:29:08;9.60;;;5.72;;
29916;SDS011;16786;49.466;11.068;2023-12-29T04:31:35;8.82;;;5.53;;
29916;SDS011;16786;49.466;11.068;2023-12-29T04:34:02;8.40;;;5.28;;
29916;SDS011;16786;49.466;11.068;2023-12-29T04:36:29;8.80;;;5.15;;
29916;SDS011;16786;49.466;11.068;2023-12-29T04:38:55;8.15;;;5.53;;
29916;SDS011;16786;49.466;11.068;2023-12-29T04:41:22;8.88;;;5.20;;
29916;SDS011;16786;49.466;11.068;2023-12-29T04:43:49;8.30;;;5.18;;
29916;SDS011;16786;49.466;11.068;2023-12-29T04:46:17;7.53;;;4.75;;
29916;SDS011;16786;49.466;11.068;2023-12-29T04:48:44;9.07;;;5.47;;
29916;SDS011;16786;49.466;11.068;2023-12-29T04:51:11;8.40;;;5.07;;
29916;SDS011;16786;49.466;11.068;2023-12-29T04:53:38;7.88;;;5.07;;
29916;SDS011;16786;49.466;11.068;2023-12-29T04:56:05;8.80;;;5.20;;
29916;SDS011;16786;49.466;11.068;2023-12-29T04:58:32;8.40;;;4.80;;
29916;SDS011;16786;49.466;11.068;2023-12-29T05:00:59;9.07;;;4.40;;
29916;SDS011;16786;49.466;11.068;2023-12-29T05:03:26;6.25;;;3.92;;
29916;SDS011;16786;49.466;11.068;2023-12-29T05:05:53;7.45;;;3.92;;
29916;SDS011;16786;49.466;11.068;2023-12-29T05:08:20;7.38;;;3.90;;
29916;SDS011;16786;49.466;11.068;2023-12-29T05:10:47;7.50;;;3.90;;
29916;SDS011;16786;49.466;11.068;2023-12-29T05:13:14;5.75;;;3.33;;
29916;SDS011;16786;49.466;11.068;2023-12-29T05:15:41;8.82;;;3.70;;
29916;SDS011;16786;49.466;11.068;2023-12-29T05:18:08;6.60;;;3.63;;
29916;SDS011;16786;49.466;11.068;2023-12-29T05:20:37;4.85;;;3.05;;
29916;SDS011;16786;49.466;11.068;2023-12-29T05:23:03;5.13;;;3.38;;
29916;SDS011;16786;49.466;11.068;2023-12-29T05:25:30;6.13;;;3.60;;
29916;SDS011;16786;49.466;11.068;2023-12-29T05:27:57;5.10;;;3.15;;
29916;SDS011;16786;49.466;11.068;2023-12-29T05:30:25;6.25;;;3.45;;
29916;SDS011;16786;49.466;11.068;2023-12-29T05:32:53;6.30;;;3.45;;
29916;SDS011;16786;49.466;11.068;2023-12-29T05:35:20;7.00;;;4.15;;
29916;SDS011;16786;49.466;11.068;2023-12-29T05:37:47;7.97;;;3.85;;
29916;SDS011;16786;49.466;11.068;2023-12-29T05:40:14;6.25;;;4.18;;
29916;SDS011;16786;49.466;11.068;2023-12-29T05:42:41;7.88;;;3.97;;
29916;SDS011;16786;49.466;11.068;2023-12-29T05:45:08;6.97;;;4.18;;
29916;SDS011;16786;49.466;11.068;2023-12-29T05:47:35;6.30;;;4.50;;
29916;SDS011;16786;49.466;11.068;2023-12-29T05:50:02;7.63;;;4.45;;
29916;SDS011;16786;49.466;11.068;2023-12-29T05:52:29;7.88;;;4.80;;
29916;SDS011;16786;49.466;11.068;2023-12-29T05:54:56;7.15;;;4.65;;
29916;SDS011;16786;49.466;11.068;2023-12-29T05:57:23;5.75;;;3.78;;
29916;SDS011;16786;49.466;11.068;2023-12-29T05:59:50;7.80;;;4.80;;
29916;SDS011;16786;49.466;11.068;2023-12-29T06:02:17;9.65;;;5.22;;
29916;SDS011;16786;49.466;11.068;2023-12-29T06:04:44;7.00;;;4.40;;
29916;SDS011;16786;49.466;11.068;2023-12-29T06:07:11;7.65;;;5.07;;
29916;SDS011;16786;49.466;11.068;2023-12-29T06:09:38;9.77;;;4.78;;
29916;SDS011;16786;49.466;11.068;2023-12-29T06:12:05;8.73;;;6.10;;
29916;SDS011;16786;49.466;11.068;2023-12-29T06:14:32;8.20;;;5.22;;
29916;SDS011;16786;49.466;11.068;2023-12-29T06:16:59;9.65;;;5.65;;
29916;SDS011;16786;49.466;11.068;2023-12-29T06:19:26;11.02;;;5.47;;
29916;SDS011;16786;49.466;11.068;2023-12-29T06:21:54;7.88;;;5.20;;
29916;SDS011;16786;49.466;11.068;2023-12-29T06:24:22;8.52;;;5.82;;
29916;SDS011;16786;49.466;11.068;2023-12-29T06:26:49;10.88;;;5.80;;
29916;SDS011;16786;49.466;11.068;2023-12-29T06:29:15;8.38;;;5.75;;
29916;SDS011;16786;49.466;11.068;2023-12-29T06:31:42;8.35;;;5.65;;
29916;SDS011;16786;49.466;11.068;2023-12-29T06:34:10;10.75;;;6.63;;
29916;SDS011;16786;49.466;11.068;2023-12-29T06:36:37;12.52;;;6.13;;
29916;SDS011;16786;49.466;11.068;2023-12-29T06:39:04;10.35;;;6.13;;
29916;SDS011;16786;49.466;11.068;2023-12-29T06:41:31;9.25;;;6.25;;
29916;SDS011;16786;49.466;11.068;2023-12-29T06:43:58;10.02;;;6.22;;
29916;SDS011;16786;49.466;11.068;2023-12-29T06:46:25;9.27;;;6.30;;
29916;SDS011;16786;49.466;11.068;2023-12-29T06:48:52;11.57;;;6.65;;
29916;SDS011;16786;49.466;11.068;2023-12-29T06:51:19;10.13;;;6.50;;
29916;SDS011;16786;49.466;11.068;2023-12-29T06:53:46;9.02;;;5.55;;
29916;SDS011;16786;49.466;11.068;2023-12-29T06:56:14;9.75;;;6.28;;
29916;SDS011;16786;49.466;11.068;2023-12-29T06:58:41;9.10;;;5.97;;
29916;SDS011;16786;49.466;11.068;2023-12-29T07:01:08;9.18;;;6.05;;
29916;SDS011;16786;49.466;11.068;2023-12-29T07:03:36;8.85;;;5.68;;
29916;SDS011;16786;49.466;11.068;2023-12-29T07:06:03;9.75;;;6.75;;
29916;SDS011;16786;49.466;11.068;2023-12-29T07:08:30;10.23;;;5.63;;
29916;SDS011;16786;49.466;11.068;2023-12-29T07:10:57;9.82;;;5.90;;
29916;SDS011;16786;49.466;11.068;2023-12-29T07:13:25;13.25;;;6.30;;
29916;SDS011;16786;49.466;11.068;2023-12-29T07:15:52;9.77;;;6.28;;
29916;SDS011;16786;49.466;11.068;2023-12-29T07:18:19;10.63;;;6.18;;
29916;SDS011;16786;49.466;11.068;2023-12-29T07:20:46;9.05;;;5.80;;
29916;SDS011;16786;49.466;11.068;2023-12-29T07:23:13;14.15;;;6.88;;
29916;SDS011;16786;49.466;11.068;2023-12-29T07:25:40;10.07;;;5.95;;
29916;SDS011;16786;49.466;11.068;2023-12-29T07:28:07;10.65;;;5.75;;
29916;SDS011;16786;49.466;11.068;2023-12-29T07:30:34;10.80;;;5.75;;
29916;SDS011;16786;49.466;11.068;2023-12-29T07:33:01;13.40;;;7.28;;
29916;SDS011;16786;49.466;11.068;2023-12-29T07:35:29;9.40;;;5.03;;
29916;SDS011;16786;49.466;11.068;2023-12-29T07:37:56;12.20;;;6.28;;
29916;SDS011;16786;49.466;11.068;2023-12-29T07:40:24;11.02;;;6.40;;
29916;SDS011;16786;49.466;11.068;2023-12-29T07:42:51;13.60;;;6.75;;
29916;SDS011;16786;49.466;11.068;2023-12-29T07:45:18;10.40;;;6.07;;
29916;SDS011;16786;49.466;11.068;2023-12-29T07:47:45;9.85;;;5.25;;
29916;SDS011;16786;49.466;11.068;2023-12-29T07:50:12;10.40;;;5.53;;
29916;SDS011;16786;49.466;11.068;2023-12-29T07:52:39;9.02;;;5.55;;
29916;SDS011;16786;49.466;11.068;2023-12-29T07:55:08;9.15;;;5.05;;
29916;SDS011;16786;49.466;11.068;2023-12-29T07:57:35;8.02;;;5.05;;
29916;SDS011;16786;49.466;11.068;2023-12-29T08:00:03;8.20;;;5.20;;
29916;SDS011;16786;49.466;11.068;2023-12-29T08:02:37;11.38;;;4.85;;
29916;SDS011;16786;49.466;11.068;2023-12-29T08:05:04;8.90;;;5.18;;
29916;SDS011;16786;49.466;11.068;2023-12-29T08:07:31;11.45;;;5.07;;
29916;SDS011;16786;49.466;11.068;2023-12-29T08:09:58;11.25;;;4.90;;
29916;SDS011;16786;49.466;11.068;2023-12-29T08:12:26;8.55;;;4.70;;
29916;SDS011;16786;49.466;11.068;2023-12-29T08:14:54;11.07;;;5.43;;
29916;SDS011;16786;49.466;11.068;2023-12-29T08:17:21;9.35;;;5.20;;
29916;SDS011;16786;49.466;11.068;2023-12-29T08:19:48;7.50;;;4.30;;
29916;SDS011;16786;49.466;11.068;2023-12-29T08:22:16;7.82;;;3.90;;
29916;SDS011;16786;49.466;11.068;2023-12-29T08:24:45;7.82;;;3.38;;
29916;SDS011;16786;49.466;11.068;2023-12-29T08:27:12;5.43;;;3.22;;
29916;SDS011;16786;49.466;11.068;2023-12-29T08:29:40;4.93;;;2.83;;
29916;SDS011;16786;49.466;11.068;2023-12-29T08:32:07;5.28;;;2.60;;
29916;SDS011;16786;49.466;11.068;2023-12-29T08:34:34;4.45;;;2.20;;
29916;SDS011;16786;49.466;11.068;2023-12-29T08:37:01;3.38;;;2.10;;
29916;SDS011;16786;49.466;11.068;2023-12-29T08:39:28;3.45;;;1.98;;
29916;SDS011;16786;49.466;11.068;2023-12-29T08:41:55;3.17;;;1.70;;
29916;SDS011;16786;49.466;11.068;2023-12-29T08:44:22;3.03;;;1.75;;
29916;SDS011;16786;49.466;11.068;2023-12-29T08:46:49;3.55;;;1.98;;
29916;SDS011;16786;49.466;11.068;2023-12-29T08:49:16;4.38;;;1.73;;
29916;SDS011;16786;49.466;11.068;2023-12-29T08:51:43;6.32;;;1.80;;
29916;SDS011;16786;49.466;11.068;2023-12-29T08:54:10;2.58;;;1.70;;
29916;SDS011;16786;49.466;11.068;2023-12-29T08:56:37;3.35;;;1.27;;
29916;SDS011;16786;49.466;11.068;2023-12-29T08:59:04;3.10;;;1.67;;
29916;SDS011;16786;49.466;11.068;2023-12-29T09:01:31;3.22;;;1.77;;
29916;SDS011;16786;49.466;11.068;2023-12-29T09:04:00;3.08;;;1.58;;
29916;SDS011;16786;49.466;11.068;2023-12-29T09:06:27;2.25;;;1.30;;
29916;SDS011;16786;49.466;11.068;2023-12-29T09:08:53;2.42;;;1.60;;
29916;SDS011;16786;49.466;11.068;2023-12-29T09:11:20;3.90;;;1.60;;
29916;SDS011;16786;49.466;11.068;2023-12-29T09:13:48;3.20;;;1.40;;
29916;SDS011;16786;49.466;11.068;2023-12-29T09:16:15;3.55;;;1.65;;
29916;SDS011;16786;49.466;11.068;2023-12-29T09:18:42;3.35;;;1.67;;
29916;SDS011;16786;49.466;11.068;2023-12-29T09:21:09;2.03;;;1.25;;
29916;SDS011;16786;49.466;11.068;2023-12-29T09:23:36;2.80;;;1.65;;
29916;SDS011;16786;49.466;11.068;2023-12-29T09:26:04;2.63;;;1.70;;
29916;SDS011;16786;49.466;11.068;2023-12-29T09:28:32;2.50;;;1.50;;
29916;SDS011;16786;49.466;11.068;2023-12-29T09:31:00;2.83;;;1.55;;
29916;SDS011;16786;49.466;11.068;2023-12-29T09:33:27;2.78;;;1.70;;
29916;SDS011;16786;49.466;11.068;2023-12-29T09:35:54;2.72;;;1.60;;
29916;SDS011;16786;49.466;11.068;2023-12-29T09:38:21;3.95;;;1.80;;
29916;SDS011;16786;49.466;11.068;2023-12-29T09:40:48;3.08;;;1.73;;
29916;SDS011;16786;49.466;11.068;2023-12-29T09:43:17;2.85;;;1.65;;
29916;SDS011;16786;49.466;11.068;2023-12-29T09:45:45;5.30;;;1.73;;
29916;SDS011;16786;49.466;11.068;2023-12-29T09:48:13;3.38;;;1.88;;
29916;SDS011;16786;49.466;11.068;2023-12-29T09:50:45;2.75;;;1.40;;
29916;SDS011;16786;49.466;11.068;2023-12-29T09:53:16;2.53;;;1.65;;
29916;SDS011;16786;49.466;11.068;2023-12-29T09:55:43;2.15;;;1.60;;
29916;SDS011;16786;49.466;11.068;2023-12-29T09:58:12;3.33;;;1.80;;
29916;SDS011;16786;49.466;11.068;2023-12-29T10:00:39;2.30;;;1.45;;
29916;SDS011;16786;49.466;11.068;2023-12-29T10:03:07;3.85;;;2.22;;
29916;SDS011;16786;49.466;11.068;2023-12-29T10:05:35;2.55;;;1.77;;
29916;SDS011;16786;49.466;11.068;2023-12-29T10:08:02;4.78;;;2.38;;
29916;SDS011;16786;49.466;11.068;2023-12-29T10:10:32;2.92;;;1.83;;
29916;SDS011;16786;49.466;11.068;2023-12-29T10:13:02;3.28;;;2.08;;
29916;SDS011;16786;49.466;11.068;2023-12-29T10:18:35;3.53;;;2.00;;
29916;SDS011;16786;49.466;11.068;2023-12-29T10:21:14;2.97;;;1.90;;
29916;SDS011;16786;49.466;11.068;2023-12-29T10:26:32;3.28;;;1.98;;
29916;SDS011;16786;49.466;11.068;2023-12-29T10:29:00;3.55;;;1.98;;
29916;SDS011;16786;49.466;11.068;2023-12-29T10:31:27;4.03;;;1.95;;
29916;SDS011;16786;49.466;11.068;2023-12-29T10:36:51;3.83;;;1.90;;
29916;SDS011;16786;49.466;11.068;2023-12-29T10:39:18;3.58;;;2.05;;
29916;SDS011;16786;49.466;11.068;2023-12-29T10:41:45;3.58;;;1.98;;
29916;SDS011;16786;49.466;11.068;2023-12-29T10:44:12;4.50;;;2.20;;
29916;SDS011;16786;49.466;11.068;2023-12-29T10:46:39;3.92;;;2.22;;
29916;SDS011;16786;49.466;11.068;2023-12-29T10:49:06;5.28;;;2.10;;
29916;SDS011;16786;49.466;11.068;2023-12-29T10:54:05;6.72;;;4.10;;
29916;SDS011;16786;49.466;11.068;2023-12-29T10:56:32;7.28;;;4.15;;
29916;SDS011;16786;49.466;11.068;2023-12-29T10:59:00;6.60;;;4.28;;
29916;SDS011;16786;49.466;11.068;2023-12-29T11:01:33;8.50;;;4.53;;
29916;SDS011;16786;49.466;11.068;2023-12-29T11:04:02;8.65;;;4.68;;
29916;SDS011;16786;49.466;11.068;2023-12-29T11:06:40;8.07;;;4.68;;
29916;SDS011;16786;49.466;11.068;2023-12-29T11:09:19;7.18;;;4.40;;
29916;SDS011;16786;49.466;11.068;2023-12-29T11:14:27;6.30;;;3.45;;
29916;SDS011;16786;49.466;11.068;2023-12-29T11:16:55;8.88;;;4.25;;
29916;SDS011;16786;49.466;11.068;2023-12-29T11:19:23;6.68;;;4.00;;
29916;SDS011;16786;49.466;11.068;2023-12-29T11:21:54;6.93;;;4.00;;
29916;SDS011;16786;49.466;11.068;2023-12-29T11:24:22;6.15;;;3.75;;
29916;SDS011;16786;49.466;11.068;2023-12-29T11:27:03;7.33;;;4.03;;
29916;SDS011;16786;49.466;11.068;2023-12-29T11:29:34;12.05;;;6.30;;
29916;SDS011;16786;49.466;11.068;2023-12-29T11:32:02;7.25;;;4.13;;
29916;SDS011;16786;49.466;11.068;2023-12-29T11:34:34;9.65;;;4.85;;
29916;SDS011;16786;49.466;11.068;2023-12-29T11:37:21;9.35;;;4.85;;
29916;SDS011;16786;49.466;11.068;2023-12-29T11:40:18;6.93;;;4.13;;
29916;SDS011;16786;49.466;11.068;2023-12-29T11:42:49;7.33;;;4.73;;
29916;SDS011;16786;49.466;11.068;2023-12-29T11:48:01;10.02;;;5.30;;
29916;SDS011;16786;49.466;11.068;2023-12-29T11:50:30;8.98;;;5.13;;
29916;SDS011;16786;49.466;11.068;2023-12-29T11:52:59;8.65;;;5.22;;
29916;SDS011;16786;49.466;11.068;2023-12-29T11:55:28;8.95;;;4.70;;
29916;SDS011;16786;49.466;11.068;2023-12-29T11:57:57;9.32;;;4.70;;
29916;SDS011;16786;49.466;11.068;2023-12-29T12:00:43;5.85;;;4.18;;
29916;SDS011;16786;49.466;11.068;2023-12-29T12:03:23;7.57;;;4.20;;
29916;SDS011;16786;49.466;11.068;2023-12-29T12:05:53;5.82;;;3.92;;
29916;SDS011;16786;49.466;11.068;2023-12-29T12:08:29;7.00;;;4.40;;
29916;SDS011;16786;49.466;11.068;2023-12-29T12:11:40;6.25;;;3.70;;
29916;SDS011;16786;49.466;11.068;2023-12-29T12:13:57;7.00;;;3.17;;
29916;SDS011;16786;49.466;11.068;2023-12-29T12:19:12;3.53;;;2.10;;
29916;SDS011;16786;49.466;11.068;2023-12-29T12:21:40;4.38;;;2.00;;
29916;SDS011;16786;49.466;11.068;2023-12-29T12:24:08;3.13;;;1.90;;
29916;SDS011;16786;49.466;11.068;2023-12-29T12:26:35;2.45;;;1.52;;
29916;SDS011;16786;49.466;11.068;2023-12-29T12:29:02;3.28;;;1.63;;
29916;SDS011;16786;49.466;11.068;2023-12-29T12:31:30;4.40;;;1.80;;
29916;SDS011;16786;49.466;11.068;2023-12-29T12:33:58;2.72;;;1.60;;
29916;SDS011;16786;49.466;11.068;2023-12-29T12:36:29;2.40;;;1.42;;
29916;SDS011;16786;49.466;11.068;2023-12-29T12:38:56;3.13;;;1.83;;
29916;SDS011;16786;49.466;11.068;2023-12-29T12:41:25;3.15;;;1.75;;
29916;SDS011;16786;49.466;11.068;2023-12-29T12:46:27;3.03;;;2.00;;
29916;SDS011;16786;49.466;11.068;2023-12-29T12:48:59;2.08;;;1.48;;
29916;SDS011;16786;49.466;11.068;2023-12-29T12:51:26;3.78;;;1.80;;
29916;SDS011;16786;49.466;11.068;2023-12-29T12:53:53;2.97;;;1.80;;
29916;SDS011;16786;49.466;11.068;2023-12-29T12:56:20;2.33;;;1.60;;
29916;SDS011;16786;49.466;11.068;2023-12-29T12:58:47;2.38;;;1.63;;
29916;SDS011;16786;49.466;11.068;2023-12-29T13:01:14;3.05;;;1.80;;
29916;SDS011;16786;49.466;11.068;2023-12-29T13:03:42;4.28;;;1.90;;
29916;SDS011;16786;49.466;11.068;2023-12-29T13:06:11;2.45;;;1.60;;
29916;SDS011;16786;49.466;11.068;2023-12-29T13:08:39;3.35;;;1.70;;
29916;SDS011;16786;49.466;11.068;2023-12-29T13:11:09;3.35;;;1.77;;
29916;SDS011;16786;49.466;11.068;2023-12-29T13:13:39;3.40;;;1.98;;
29916;SDS011;16786;49.466;11.068;2023-12-29T13:16:07;3.58;;;1.60;;
29916;SDS011;16786;49.466;11.068;2023-12-29T13:18:35;2.67;;;1.83;;
29916;SDS011;16786;49.466;11.068;2023-12-29T13:21:03;3.95;;;2.00;;
29916;SDS011;16786;49.466;11.068;2023-12-29T13:23:30;2.30;;;1.77;;
29916;SDS011;16786;49.466;11.068;2023-12-29T13:25:59;2.38;;;1.70;;
29916;SDS011;16786;49.466;11.068;2023-12-29T13:28:36;2.70;;;1.80;;
29916;SDS011;16786;49.466;11.068;2023-12-29T13:31:07;4.90;;;1.98;;
29916;SDS011;16786;49.466;11.068;2023-12-29T13:36:35;2.90;;;1.80;;
29916;SDS011;16786;49.466;11.068;2023-12-29T13:42:07;2.20;;;1.73;;
29916;SDS011;16786;49.466;11.068;2023-12-29T13:44:37;2.90;;;1.60;;
29916;SDS011;16786;49.466;11.068;2023-12-29T13:47:07;2.70;;;1.70;;
29916;SDS011;16786;49.466;11.068;2023-12-29T13:49:35;3.38;;;1.83;;
29916;SDS011;16786;49.466;11.068;2023-12-29T13:52:03;2.17;;;1.63;;
29916;SDS011;16786;49.466;11.068;2023-12-29T13:54:31;2.30;;;1.70;;
29916;SDS011;16786;49.466;11.068;2023-12-29T13:57:09;4.03;;;1.90;;
29916;SDS011;16786;49.466;11.068;2023-12-29T13:59:36;3.25;;;1.90;;
29916;SDS011;16786;49.466;11.068;2023-12-29T14:05:06;2.88;;;2.22;;
29916;SDS011;16786;49.466;11.068;2023-12-29T14:07:42;2.97;;;1.83;;
29916;SDS011;16786;49.466;11.068;2023-12-29T14:10:18;3.15;;;1.90;;
29916;SDS011;16786;49.466;11.068;2023-12-29T14:12:45;2.80;;;1.90;;
29916;SDS011;16786;49.466;11.068;2023-12-29T14:15:13;2.05;;;1.60;;
29916;SDS011;16786;49.466;11.068;2023-12-29T14:17:40;3.05;;;1.80;;
29916;SDS011;16786;49.466;11.068;2023-12-29T14:20:07;3.97;;;1.90;;
29916;SDS011;16786;49.466;11.068;2023-12-29T14:22:36;4.03;;;1.70;;
29916;SDS011;16786;49.466;11.068;2023-12-29T14:25:04;2.60;;;1.70;;
29916;SDS011;16786;49.466;11.068;2023-12-29T14:27:32;3.05;;;1.60;;
29916;SDS011;16786;49.466;11.068;2023-12-29T14:29:59;2.85;;;1.92;;
29916;SDS011;16786;49.466;11.068;2023-12-29T14:32:28;2.58;;;1.70;;
29916;SDS011;16786;49.466;11.068;2023-12-29T14:34:57;2.25;;;1.70;;
29916;SDS011;16786;49.466;11.068;2023-12-29T14:37:23;3.25;;;1.50;;
29916;SDS011;16786;49.466;11.068;2023-12-29T14:39:51;2.97;;;1.80;;
29916;SDS011;16786;49.466;11.068;2023-12-29T14:42:18;3.78;;;1.70;;
29916;SDS011;16786;49.466;11.068;2023-12-29T14:44:46;5.40;;;2.15;;
29916;SDS011;16786;49.466;11.068;2023-12-29T14:47:14;5.85;;;1.70;;
29916;SDS011;16786;49.466;11.068;2023-12-29T14:49:42;3.20;;;2.00;;
29916;SDS011;16786;49.466;11.068;2023-12-29T14:52:09;2.88;;;1.80;;
29916;SDS011;16786;49.466;11.068;2023-12-29T14:54:37;3.33;;;2.15;;
29916;SDS011;16786;49.466;11.068;2023-12-29T14:57:06;3.83;;;2.10;;
29916;SDS011;16786;49.466;11.068;2023-12-29T14:59:41;4.78;;;2.15;;
29916;SDS011;16786;49.466;11.068;2023-12-29T15:02:08;3.33;;;2.10;;
29916;SDS011;16786;49.466;11.068;2023-12-29T15:04:35;3.30;;;2.10;;
29916;SDS011;16786;49.466;11.068;2023-12-29T15:07:02;2.90;;;2.00;;
29916;SDS011;16786;49.466;11.068;2023-12-29T15:09:30;3.53;;;2.25;;
29916;SDS011;16786;49.466;11.068;2023-12-29T15:11:57;3.83;;;2.05;;